sensor_id;sensor_type;location;lat;lon;timestamp;pressure;altitude;pressure_sealevel;temperature;humidity
51287;BME280;37364;46.974;18.916;2023-01-27T00:01:18;150369.81;;;0.06;100.00
51287;BME280;37364;46.974;18.916;2023-01-27T00:03:52;150371.09;;;0.07;100.00
51287;BME280;37364;46.974;18.916;2023-01-27T00:06:23;150369.81;;;0.06;100.00
51287;BME280;37364;46.974;18.916;2023-01-27T00:08:54;150364.69;;;0.04;100.00
51287;BME280;37364;46.974;18.916;2023-01-27T00:11:25;150359.53;;;0.02;100.00
51287;BME280;37364;46.974;18.916;2023-01-27T00:14:08;150355.69;;;0.01;100.00
51287;BME280;37364;46.974;18.916;2023-01-27T00:16:38;150359.53;;;0.02;100.00
51287;BME280;37364;46.974;18.916;2023-01-27T00:19:11;150365.94;;;0.05;100.00
51287;BME280;37364;46.974;18.916;2023-01-27T00:21:46;150350.53;;;-0.02;100.00
51287;BME280;37364;46.974;18.916;2023-01-27T00:24:29;150356.94;;;0.01;100.00
51287;BME280;37364;46.974;18.916;2023-01-27T00:27:07;150346.69;;;-0.03;100.00
51287;BME280;37364;46.974;18.916;2023-01-27T00:29:39;150349.22;;;-0.02;100.00
51287;BME280;37364;46.974;18.916;2023-01-27T00:32:09;150349.22;;;-0.02;100.00
51287;BME280;37364;46.974;18.916;2023-01-27T00:34:55;150350.53;;;-0.02;100.00
51287;BME280;37364;46.974;18.916;2023-01-27T00:37:25;150356.94;;;0.01;100.00
51287;BME280;37364;46.974;18.916;2023-01-27T00:39:56;150365.94;;;0.05;100.00
51287;BME280;37364;46.974;18.916;2023-01-27T00:42:26;150356.94;;;0.01;100.00
51287;BME280;37364;46.974;18.916;2023-01-27T00:44:57;150355.69;;;0.01;100.00
51287;BME280;37364;46.974;18.916;2023-01-27T00:47:49;150350.53;;;-0.02;100.00
51287;BME280;37364;46.974;18.916;2023-01-27T00:50:22;150358.22;;;0.02;100.00
51287;BME280;37364;46.974;18.916;2023-01-27T00:52:53;150350.53;;;-0.02;100.00
51287;BME280;37364;46.974;18.916;2023-01-27T00:55:25;150345.41;;;-0.04;100.00
51287;BME280;37364;46.974;18.916;2023-01-27T00:57:56;150351.81;;;-0.01;100.00
51287;BME280;37364;46.974;18.916;2023-01-27T01:00:31;150331.28;;;-0.09;100.00
51287;BME280;37364;46.974;18.916;2023-01-27T01:03:02;150337.69;;;-0.07;100.00
51287;BME280;37364;46.974;18.916;2023-01-27T01:05:36;150328.69;;;-0.10;100.00
51287;BME280;37364;46.974;18.916;2023-01-27T01:08:06;150326.13;;;-0.11;100.00
51287;BME280;37364;46.974;18.916;2023-01-27T01:10:37;150314.56;;;-0.16;100.00
51287;BME280;37364;46.974;18.916;2023-01-27T01:13:11;150331.28;;;-0.09;100.00
51287;BME280;37364;46.974;18.916;2023-01-27T01:15:41;150317.13;;;-0.15;100.00
51287;BME280;37364;46.974;18.916;2023-01-27T01:18:14;150328.69;;;-0.10;100.00
51287;BME280;37364;46.974;18.916;2023-01-27T01:20:48;150315.88;;;-0.15;100.00
51287;BME280;37364;46.974;18.916;2023-01-27T01:23:18;150335.13;;;-0.08;100.00
51287;BME280;37364;46.974;18.916;2023-01-27T01:25:54;150331.28;;;-0.09;100.00
51287;BME280;37364;46.974;18.916;2023-01-27T01:28:24;150328.69;;;-0.10;100.00
51287;BME280;37364;46.974;18.916;2023-01-27T01:30:55;150317.13;;;-0.15;100.00
51287;BME280;37364;46.974;18.916;2023-01-27T01:33:26;150308.13;;;-0.18;100.00
51287;BME280;37364;46.974;18.916;2023-01-27T01:36:02;150317.13;;;-0.15;100.00
51287;BME280;37364;46.974;18.916;2023-01-27T01:38:35;150322.28;;;-0.13;100.00
51287;BME280;37364;46.974;18.916;2023-01-27T01:41:08;150309.41;;;-0.18;100.00
51287;BME280;37364;46.974;18.916;2023-01-27T01:43:40;150326.13;;;-0.11;100.00
51287;BME280;37364;46.974;18.916;2023-01-27T01:46:11;150319.69;;;-0.14;100.00
51287;BME280;37364;46.974;18.916;2023-01-27T01:48:45;150301.75;;;-0.21;100.00
51287;BME280;37364;46.974;18.916;2023-01-27T01:51:24;150313.28;;;-0.16;100.00
51287;BME280;37364;46.974;18.916;2023-01-27T01:53:59;150288.88;;;-0.26;100.00
51287;BME280;37364;46.974;18.916;2023-01-27T01:56:34;150299.16;;;-0.22;100.00
51287;BME280;37364;46.974;18.916;2023-01-27T01:59:09;150281.19;;;-0.29;100.00
51287;BME280;37364;46.974;18.916;2023-01-27T02:01:54;150306.88;;;-0.19;100.00
51287;BME280;37364;46.974;18.916;2023-01-27T02:04:31;150300.47;;;-0.22;100.00
51287;BME280;37364;46.974;18.916;2023-01-27T02:07:10;150283.75;;;-0.28;100.00
51287;BME280;37364;46.974;18.916;2023-01-27T02:09:51;150294.00;;;-0.24;100.00
51287;BME280;37364;46.974;18.916;2023-01-27T02:12:22;150304.28;;;-0.20;100.00
51287;BME280;37364;46.974;18.916;2023-01-27T02:14:53;150283.75;;;-0.28;100.00
51287;BME280;37364;46.974;18.916;2023-01-27T02:17:24;150273.47;;;-0.32;100.00
51287;BME280;37364;46.974;18.916;2023-01-27T02:20:04;150281.19;;;-0.29;100.00
51287;BME280;37364;46.974;18.916;2023-01-27T02:22:45;150286.34;;;-0.27;100.00
51287;BME280;37364;46.974;18.916;2023-01-27T02:25:20;150286.34;;;-0.27;100.00
51287;BME280;37364;46.974;18.916;2023-01-27T02:27:58;150267.06;;;-0.35;100.00
51287;BME280;37364;46.974;18.916;2023-01-27T02:30:31;150268.34;;;-0.34;100.00
51287;BME280;37364;46.974;18.916;2023-01-27T02:33:07;150276.06;;;-0.31;100.00
51287;BME280;37364;46.974;18.916;2023-01-27T02:35:43;150274.75;;;-0.32;100.00
51287;BME280;37364;46.974;18.916;2023-01-27T02:38:19;150288.88;;;-0.26;100.00
51287;BME280;37364;46.974;18.916;2023-01-27T02:40:54;150304.28;;;-0.20;100.00
51287;BME280;37364;46.974;18.916;2023-01-27T02:43:31;150277.34;;;-0.31;100.00
51287;BME280;37364;46.974;18.916;2023-01-27T02:46:02;150267.06;;;-0.35;100.00
51287;BME280;37364;46.974;18.916;2023-01-27T02:48:33;150270.88;;;-0.33;100.00
51287;BME280;37364;46.974;18.916;2023-01-27T02:51:04;150273.47;;;-0.32;100.00
51287;BME280;37364;46.974;18.916;2023-01-27T02:53:37;150274.75;;;-0.32;100.00
51287;BME280;37364;46.974;18.916;2023-01-27T02:56:08;150256.81;;;-0.39;100.00
51287;BME280;37364;46.974;18.916;2023-01-27T02:58:41;150242.69;;;-0.45;100.00
51287;BME280;37364;46.974;18.916;2023-01-27T03:01:21;150251.66;;;-0.41;100.00
51287;BME280;37364;46.974;18.916;2023-01-27T03:03:51;150245.22;;;-0.44;100.00
51287;BME280;37364;46.974;18.916;2023-01-27T03:06:22;150254.22;;;-0.40;100.00
51287;BME280;37364;46.974;18.916;2023-01-27T03:08:53;150246.53;;;-0.43;100.00
51287;BME280;37364;46.974;18.916;2023-01-27T03:11:24;150247.81;;;-0.43;100.00
51287;BME280;37364;46.974;18.916;2023-01-27T03:14:09;150234.94;;;-0.48;100.00
51287;BME280;37364;46.974;18.916;2023-01-27T03:16:42;150242.69;;;-0.45;100.00
51287;BME280;37364;46.974;18.916;2023-01-27T03:19:25;150236.22;;;-0.47;100.00
51287;BME280;37364;46.974;18.916;2023-01-27T03:21:56;150246.53;;;-0.43;100.00
51287;BME280;37364;46.974;18.916;2023-01-27T03:24:31;150252.94;;;-0.41;100.00
51287;BME280;37364;46.974;18.916;2023-01-27T03:27:08;150254.22;;;-0.40;100.00
51287;BME280;37364;46.974;18.916;2023-01-27T03:30:12;150233.69;;;-0.48;100.00
51287;BME280;37364;46.974;18.916;2023-01-27T03:33:22;150241.34;;;-0.45;100.00
51287;BME280;37364;46.974;18.916;2023-01-27T03:36:02;150231.09;;;-0.49;100.00
51287;BME280;37364;46.974;18.916;2023-01-27T03:38:48;150215.69;;;-0.55;100.00
51287;BME280;37364;46.974;18.916;2023-01-27T03:41:31;150218.28;;;-0.54;100.00
51287;BME280;37364;46.974;18.916;2023-01-27T03:44:26;150224.69;;;-0.52;100.00
51287;BME280;37364;46.974;18.916;2023-01-27T03:47:16;150224.69;;;-0.52;100.00
51287;BME280;37364;46.974;18.916;2023-01-27T03:49:46;150218.28;;;-0.54;100.00
51287;BME280;37364;46.974;18.916;2023-01-27T03:52:19;150213.16;;;-0.56;100.00
51287;BME280;37364;46.974;18.916;2023-01-27T03:54:50;150211.81;;;-0.57;100.00
51287;BME280;37364;46.974;18.916;2023-01-27T03:57:21;150219.56;;;-0.54;100.00
51287;BME280;37364;46.974;18.916;2023-01-27T03:59:51;150219.56;;;-0.54;100.00
51287;BME280;37364;46.974;18.916;2023-01-27T04:02:25;150211.81;;;-0.57;100.00
51287;BME280;37364;46.974;18.916;2023-01-27T04:05:08;150216.97;;;-0.55;100.00
51287;BME280;37364;46.974;18.916;2023-01-27T04:07:51;150215.69;;;-0.55;100.00
51287;BME280;37364;46.974;18.916;2023-01-27T04:10:22;150215.69;;;-0.55;100.00
51287;BME280;37364;46.974;18.916;2023-01-27T04:12:52;150219.56;;;-0.54;100.00
51287;BME280;37364;46.974;18.916;2023-01-27T04:15:20;150222.13;;;-0.53;100.00
51287;BME280;37364;46.974;18.916;2023-01-27T04:17:56;150215.69;;;-0.55;100.00
51287;BME280;37364;46.974;18.916;2023-01-27T04:20:27;150211.81;;;-0.57;100.00
51287;BME280;37364;46.974;18.916;2023-01-27T04:22:57;150222.13;;;-0.53;100.00
51287;BME280;37364;46.974;18.916;2023-01-27T04:25:28;150215.69;;;-0.55;100.00
51287;BME280;37364;46.974;18.916;2023-01-27T04:27:59;150220.81;;;-0.53;100.00
51287;BME280;37364;46.974;18.916;2023-01-27T04:30:30;150220.81;;;-0.53;100.00
51287;BME280;37364;46.974;18.916;2023-01-27T04:33:03;150240.09;;;-0.46;100.00
51287;BME280;37364;46.974;18.916;2023-01-27T04:35:36;150238.81;;;-0.46;100.00
51287;BME280;37364;46.974;18.916;2023-01-27T04:38:07;150252.94;;;-0.41;100.00
51287;BME280;37364;46.974;18.916;2023-01-27T04:40:41;150250.34;;;-0.42;100.00
51287;BME280;37364;46.974;18.916;2023-01-27T04:43:13;150252.94;;;-0.41;100.00
51287;BME280;37364;46.974;18.916;2023-01-27T04:45:46;150250.34;;;-0.42;100.00
51287;BME280;37364;46.974;18.916;2023-01-27T04:48:22;150251.66;;;-0.41;100.00
51287;BME280;37364;46.974;18.916;2023-01-27T04:50:55;150240.09;;;-0.46;100.00
51287;BME280;37364;46.974;18.916;2023-01-27T04:53:27;150237.53;;;-0.47;100.00
51287;BME280;37364;46.974;18.916;2023-01-27T04:56:01;150232.41;;;-0.49;100.00
51287;BME280;37364;46.974;18.916;2023-01-27T04:58:33;150224.69;;;-0.52;100.00
51287;BME280;37364;46.974;18.916;2023-01-27T05:01:03;150220.81;;;-0.53;100.00
51287;BME280;37364;46.974;18.916;2023-01-27T05:03:40;150225.97;;;-0.51;100.00
51287;BME280;37364;46.974;18.916;2023-01-27T05:06:14;150225.97;;;-0.51;100.00
51287;BME280;37364;46.974;18.916;2023-01-27T05:08:46;150223.41;;;-0.52;100.00
51287;BME280;37364;46.974;18.916;2023-01-27T05:11:18;150219.56;;;-0.54;100.00
51287;BME280;37364;46.974;18.916;2023-01-27T05:13:49;150211.81;;;-0.57;100.00
51287;BME280;37364;46.974;18.916;2023-01-27T05:16:21;150237.53;;;-0.47;100.00
51287;BME280;37364;46.974;18.916;2023-01-27T05:18:56;150236.22;;;-0.47;100.00
51287;BME280;37364;46.974;18.916;2023-01-27T05:21:28;150218.28;;;-0.54;100.00
51287;BME280;37364;46.974;18.916;2023-01-27T05:23:59;150208.00;;;-0.58;100.00
51287;BME280;37364;46.974;18.916;2023-01-27T05:26:31;150205.44;;;-0.60;100.00
51287;BME280;37364;46.974;18.916;2023-01-27T05:29:04;150224.69;;;-0.52;100.00
51287;BME280;37364;46.974;18.916;2023-01-27T05:31:35;150216.97;;;-0.55;100.00
51287;BME280;37364;46.974;18.916;2023-01-27T05:34:08;150215.69;;;-0.55;100.00
51287;BME280;37364;46.974;18.916;2023-01-27T05:36:41;150223.41;;;-0.52;100.00
51287;BME280;37364;46.974;18.916;2023-01-27T05:39:13;150233.69;;;-0.48;100.00
51287;BME280;37364;46.974;18.916;2023-01-27T05:41:44;150228.56;;;-0.50;100.00
51287;BME280;37364;46.974;18.916;2023-01-27T05:44:18;150234.94;;;-0.48;100.00
51287;BME280;37364;46.974;18.916;2023-01-27T05:46:48;150233.69;;;-0.48;100.00
51287;BME280;37364;46.974;18.916;2023-01-27T05:49:25;150231.09;;;-0.49;100.00
51287;BME280;37364;46.974;18.916;2023-01-27T05:51:56;150227.28;;;-0.51;100.00
51287;BME280;37364;46.974;18.916;2023-01-27T05:54:30;150238.81;;;-0.46;100.00
51287;BME280;37364;46.974;18.916;2023-01-27T05:57:06;150228.56;;;-0.50;100.00
51287;BME280;37364;46.974;18.916;2023-01-27T05:59:48;150224.69;;;-0.52;100.00
51287;BME280;37364;46.974;18.916;2023-01-27T06:02:19;150223.41;;;-0.52;100.00
51287;BME280;37364;46.974;18.916;2023-01-27T06:04:55;150232.41;;;-0.49;100.00
51287;BME280;37364;46.974;18.916;2023-01-27T06:07:26;150223.41;;;-0.52;100.00
51287;BME280;37364;46.974;18.916;2023-01-27T06:09:58;150238.81;;;-0.46;100.00
51287;BME280;37364;46.974;18.916;2023-01-27T06:12:54;150228.56;;;-0.50;100.00
51287;BME280;37364;46.974;18.916;2023-01-27T06:15:31;150240.09;;;-0.46;100.00
51287;BME280;37364;46.974;18.916;2023-01-27T06:18:07;150222.13;;;-0.53;100.00
51287;BME280;37364;46.974;18.916;2023-01-27T06:20:45;150223.41;;;-0.52;100.00
51287;BME280;37364;46.974;18.916;2023-01-27T06:23:21;150216.97;;;-0.55;100.00
51287;BME280;37364;46.974;18.916;2023-01-27T06:26:08;150215.69;;;-0.55;100.00
51287;BME280;37364;46.974;18.916;2023-01-27T06:28:52;150222.13;;;-0.53;100.00
51287;BME280;37364;46.974;18.916;2023-01-27T06:31:40;150216.97;;;-0.55;100.00
51287;BME280;37364;46.974;18.916;2023-01-27T06:34:17;150204.16;;;-0.60;100.00
51287;BME280;37364;46.974;18.916;2023-01-27T06:36:55;150209.28;;;-0.58;100.00
51287;BME280;37364;46.974;18.916;2023-01-27T06:39:33;150218.28;;;-0.54;100.00
51287;BME280;37364;46.974;18.916;2023-01-27T06:42:08;150208.00;;;-0.58;100.00
51287;BME280;37364;46.974;18.916;2023-01-27T06:44:38;150222.13;;;-0.53;100.00
51287;BME280;37364;46.974;18.916;2023-01-27T06:47:09;150214.41;;;-0.56;100.00
51287;BME280;37364;46.974;18.916;2023-01-27T06:49:39;150215.69;;;-0.55;100.00
51287;BME280;37364;46.974;18.916;2023-01-27T06:52:12;150214.41;;;-0.56;100.00
51287;BME280;37364;46.974;18.916;2023-01-27T06:54:45;150204.16;;;-0.60;100.00
51287;BME280;37364;46.974;18.916;2023-01-27T06:57:16;150228.56;;;-0.50;100.00
51287;BME280;37364;46.974;18.916;2023-01-27T06:59:46;150208.00;;;-0.58;100.00
51287;BME280;37364;46.974;18.916;2023-01-27T07:02:17;150216.97;;;-0.55;100.00
51287;BME280;37364;46.974;18.916;2023-01-27T07:04:47;150237.53;;;-0.47;100.00
51287;BME280;37364;46.974;18.916;2023-01-27T07:07:21;150247.81;;;-0.43;100.00
51287;BME280;37364;46.974;18.916;2023-01-27T07:09:51;150220.81;;;-0.53;100.00
51287;BME280;37364;46.974;18.916;2023-01-27T07:12:24;150214.41;;;-0.56;100.00
51287;BME280;37364;46.974;18.916;2023-01-27T07:14:54;150211.81;;;-0.57;100.00
51287;BME280;37364;46.974;18.916;2023-01-27T07:17:27;150224.69;;;-0.52;100.00
51287;BME280;37364;46.974;18.916;2023-01-27T07:20:00;150234.94;;;-0.48;100.00
51287;BME280;37364;46.974;18.916;2023-01-27T07:22:35;150247.81;;;-0.43;100.00
51287;BME280;37364;46.974;18.916;2023-01-27T07:25:08;150243.94;;;-0.44;100.00
51287;BME280;37364;46.974;18.916;2023-01-27T07:27:39;150259.34;;;-0.38;100.00
51287;BME280;37364;46.974;18.916;2023-01-27T07:30:12;150227.28;;;-0.51;100.00
51287;BME280;37364;46.974;18.916;2023-01-27T07:32:42;150245.22;;;-0.44;100.00
51287;BME280;37364;46.974;18.916;2023-01-27T07:35:13;150249.09;;;-0.42;100.00
51287;BME280;37364;46.974;18.916;2023-01-27T07:37:46;150247.81;;;-0.43;100.00
51287;BME280;37364;46.974;18.916;2023-01-27T07:40:18;150254.22;;;-0.40;100.00
51287;BME280;37364;46.974;18.916;2023-01-27T07:42:49;150240.09;;;-0.46;100.00
51287;BME280;37364;46.974;18.916;2023-01-27T07:45:24;150267.06;;;-0.35;100.00
51287;BME280;37364;46.974;18.916;2023-01-27T07:48:03;150247.81;;;-0.43;100.00
51287;BME280;37364;46.974;18.916;2023-01-27T07:50:35;150238.81;;;-0.46;100.00
51287;BME280;37364;46.974;18.916;2023-01-27T07:53:32;150255.47;;;-0.40;100.00
51287;BME280;37364;46.974;18.916;2023-01-27T07:56:08;150252.94;;;-0.41;100.00
51287;BME280;37364;46.974;18.916;2023-01-27T07:58:41;150243.94;;;-0.44;100.00
51287;BME280;37364;46.974;18.916;2023-01-27T08:01:14;150245.22;;;-0.44;100.00
51287;BME280;37364;46.974;18.916;2023-01-27T08:03:45;150246.53;;;-0.43;100.00
51287;BME280;37364;46.974;18.916;2023-01-27T08:06:15;150263.22;;;-0.36;100.00
51287;BME280;37364;46.974;18.916;2023-01-27T08:08:52;150297.88;;;-0.23;100.00
51287;BME280;37364;46.974;18.916;2023-01-27T08:11:22;150281.19;;;-0.29;100.00
51287;BME280;37364;46.974;18.916;2023-01-27T08:13:54;150270.88;;;-0.33;100.00
51287;BME280;37364;46.974;18.916;2023-01-27T08:16:25;150276.06;;;-0.31;100.00
51287;BME280;37364;46.974;18.916;2023-01-27T08:18:56;150296.59;;;-0.23;100.00
51287;BME280;37364;46.974;18.916;2023-01-27T08:21:27;150294.00;;;-0.24;100.00
51287;BME280;37364;46.974;18.916;2023-01-27T08:24:02;150310.72;;;-0.17;100.00
51287;BME280;37364;46.974;18.916;2023-01-27T08:26:33;150294.00;;;-0.24;100.00
51287;BME280;37364;46.974;18.916;2023-01-27T08:29:04;150303.00;;;-0.21;100.00
51287;BME280;37364;46.974;18.916;2023-01-27T08:31:42;150295.28;;;-0.24;100.00
51287;BME280;37364;46.974;18.916;2023-01-27T08:34:13;150306.88;;;-0.19;100.00
51287;BME280;37364;46.974;18.916;2023-01-27T08:36:43;150314.56;;;-0.16;100.00
51287;BME280;37364;46.974;18.916;2023-01-27T08:39:19;150297.88;;;-0.23;100.00
51287;BME280;37364;46.974;18.916;2023-01-27T08:41:49;150295.28;;;-0.24;100.00
51287;BME280;37364;46.974;18.916;2023-01-27T08:44:19;150294.00;;;-0.24;100.00
51287;BME280;37364;46.974;18.916;2023-01-27T08:46:50;150309.41;;;-0.18;100.00
51287;BME280;37364;46.974;18.916;2023-01-27T08:49:21;150281.19;;;-0.29;100.00
51287;BME280;37364;46.974;18.916;2023-01-27T08:51:59;150285.00;;;-0.28;100.00
51287;BME280;37364;46.974;18.916;2023-01-27T08:54:32;150304.28;;;-0.20;100.00
51287;BME280;37364;46.974;18.916;2023-01-27T08:57:05;150285.00;;;-0.28;100.00
51287;BME280;37364;46.974;18.916;2023-01-27T08:59:39;150294.00;;;-0.24;100.00
51287;BME280;37364;46.974;18.916;2023-01-27T09:02:12;150259.34;;;-0.38;100.00
51287;BME280;37364;46.974;18.916;2023-01-27T09:04:44;150243.94;;;-0.44;100.00
51287;BME280;37364;46.974;18.916;2023-01-27T09:07:15;150256.81;;;-0.39;100.00
51287;BME280;37364;46.974;18.916;2023-01-27T09:09:49;150265.75;;;-0.35;100.00
51287;BME280;37364;46.974;18.916;2023-01-27T09:12:39;150260.63;;;-0.37;100.00
51287;BME280;37364;46.974;18.916;2023-01-27T09:15:10;150241.34;;;-0.45;100.00
51287;BME280;37364;46.974;18.916;2023-01-27T09:17:46;150206.69;;;-0.59;100.00
51287;BME280;37364;46.974;18.916;2023-01-27T09:20:23;150213.16;;;-0.56;100.00
51287;BME280;37364;46.974;18.916;2023-01-27T09:23:00;150218.28;;;-0.54;100.00
51287;BME280;37364;46.974;18.916;2023-01-27T09:25:34;150229.81;;;-0.50;100.00
51287;BME280;37364;46.974;18.916;2023-01-27T09:28:04;150223.41;;;-0.52;100.00
51287;BME280;37364;46.974;18.916;2023-01-27T09:30:45;150219.56;;;-0.54;100.00
51287;BME280;37364;46.974;18.916;2023-01-27T09:33:17;150205.44;;;-0.60;100.00
51287;BME280;37364;46.974;18.916;2023-01-27T09:35:56;150241.34;;;-0.45;100.00
51287;BME280;37364;46.974;18.916;2023-01-27T09:38:32;150237.53;;;-0.47;100.00
51287;BME280;37364;46.974;18.916;2023-01-27T09:41:37;150252.94;;;-0.41;100.00
51287;BME280;37364;46.974;18.916;2023-01-27T09:48:00;150187.44;;;-0.67;100.00
51287;BME280;37364;46.974;18.916;2023-01-27T09:51:07;150155.38;;;-0.80;100.00
51287;BME280;37364;46.974;18.916;2023-01-27T09:53:51;150151.50;;;-0.81;100.00
51287;BME280;37364;46.974;18.916;2023-01-27T09:56:42;150155.38;;;-0.80;100.00
51287;BME280;37364;46.974;18.916;2023-01-27T09:59:35;150160.50;;;-0.77;100.00
51287;BME280;37364;46.974;18.916;2023-01-27T10:02:17;150105.34;;;-1.00;100.00
51287;BME280;37364;46.974;18.916;2023-01-27T10:05:13;150131.00;;;-0.89;100.00
51287;BME280;37364;46.974;18.916;2023-01-27T10:08:17;150159.25;;;-0.78;100.00
51287;BME280;37364;46.974;18.916;2023-01-27T10:11:08;150170.78;;;-0.73;100.00
51287;BME280;37364;46.974;18.916;2023-01-27T10:13:59;150172.03;;;-0.73;100.00
51287;BME280;37364;46.974;18.916;2023-01-27T10:19:51;150123.28;;;-0.92;100.00
51287;BME280;37364;46.974;18.916;2023-01-27T10:22:36;150134.84;;;-0.88;100.00
51287;BME280;37364;46.974;18.916;2023-01-27T10:25:22;150115.59;;;-0.95;100.00
51287;BME280;37364;46.974;18.916;2023-01-27T10:27:56;150133.53;;;-0.88;100.00
51287;BME280;37364;46.974;18.916;2023-01-27T10:30:34;150123.28;;;-0.92;100.00
51287;BME280;37364;46.974;18.916;2023-01-27T10:33:15;150133.53;;;-0.88;100.00
51287;BME280;37364;46.974;18.916;2023-01-27T10:35:51;150131.00;;;-0.89;100.00
51287;BME280;37364;46.974;18.916;2023-01-27T10:38:34;150138.72;;;-0.86;100.00
51287;BME280;37364;46.974;18.916;2023-01-27T10:41:19;150102.75;;;-1.01;100.00
51287;BME280;37364;46.974;18.916;2023-01-27T10:44:03;150083.50;;;-1.08;100.00
51287;BME280;37364;46.974;18.916;2023-01-27T10:47:00;150111.75;;;-0.97;100.00
51287;BME280;37364;46.974;18.916;2023-01-27T10:49:44;150113.00;;;-0.96;100.00
51287;BME280;37364;46.974;18.916;2023-01-27T10:52:18;150137.38;;;-0.87;100.00
51287;BME280;37364;46.974;18.916;2023-01-27T10:54:59;150086.09;;;-1.07;100.00
51287;BME280;37364;46.974;18.916;2023-01-27T10:57:35;150095.06;;;-1.04;100.00
51287;BME280;37364;46.974;18.916;2023-01-27T11:00:13;150124.59;;;-0.92;100.00
51287;BME280;37364;46.974;18.916;2023-01-27T11:03:14;150132.25;;;-0.89;100.00
51287;BME280;37364;46.974;18.916;2023-01-27T11:05:52;150115.59;;;-0.95;100.00
51287;BME280;37364;46.974;18.916;2023-01-27T11:08:28;150163.09;;;-0.76;100.00
51287;BME280;37364;46.974;18.916;2023-01-27T11:11:06;150125.84;;;-0.91;100.00
51287;BME280;37364;46.974;18.916;2023-01-27T11:13:56;150132.25;;;-0.89;100.00
51287;BME280;37364;46.974;18.916;2023-01-27T11:16:36;150111.75;;;-0.97;100.00
51287;BME280;37364;46.974;18.916;2023-01-27T11:19:25;150159.25;;;-0.78;100.00
51287;BME280;37364;46.974;18.916;2023-01-27T11:22:01;150146.38;;;-0.83;100.00
51287;BME280;37364;46.974;18.916;2023-01-27T11:24:42;150148.97;;;-0.82;100.00
51287;BME280;37364;46.974;18.916;2023-01-27T11:27:24;150182.31;;;-0.69;100.00
51287;BME280;37364;46.974;18.916;2023-01-27T11:30:06;150160.50;;;-0.77;100.00
51287;BME280;37364;46.974;18.916;2023-01-27T11:32:47;150161.78;;;-0.77;100.00
51287;BME280;37364;46.974;18.916;2023-01-27T11:35:28;150175.91;;;-0.71;100.00
51287;BME280;37364;46.974;18.916;2023-01-27T11:38:01;150211.81;;;-0.57;100.00
51287;BME280;37364;46.974;18.916;2023-01-27T11:40:42;150231.09;;;-0.49;100.00
51287;BME280;37364;46.974;18.916;2023-01-27T11:43:16;150214.41;;;-0.56;100.00
51287;BME280;37364;46.974;18.916;2023-01-27T11:45:49;150219.56;;;-0.54;100.00
51287;BME280;37364;46.974;18.916;2023-01-27T11:48:26;150237.53;;;-0.47;100.00
51287;BME280;37364;46.974;18.916;2023-01-27T11:51:13;150166.91;;;-0.75;100.00
51287;BME280;37364;46.974;18.916;2023-01-27T11:53:51;150163.09;;;-0.76;100.00
51287;BME280;37364;46.974;18.916;2023-01-27T11:56:27;150227.28;;;-0.51;100.00
51287;BME280;37364;46.974;18.916;2023-01-27T11:59:07;150200.28;;;-0.62;100.00
51287;BME280;37364;46.974;18.916;2023-01-27T12:01:43;150191.31;;;-0.65;100.00
51287;BME280;37364;46.974;18.916;2023-01-27T12:04:47;150238.81;;;-0.46;100.00
51287;BME280;37364;46.974;18.916;2023-01-27T12:07:38;150187.44;;;-0.67;100.00
51287;BME280;37364;46.974;18.916;2023-01-27T12:10:25;150187.44;;;-0.67;100.00
51287;BME280;37364;46.974;18.916;2023-01-27T12:13:01;150199.03;;;-0.62;100.00
51287;BME280;37364;46.974;18.916;2023-01-27T12:15:47;150252.94;;;-0.41;100.00
51287;BME280;37364;46.974;18.916;2023-01-27T12:26:10;150191.31;;;-0.65;100.00
51287;BME280;37364;46.974;18.916;2023-01-27T12:28:49;150222.13;;;-0.53;100.00
51287;BME280;37364;46.974;18.916;2023-01-27T12:31:23;150234.94;;;-0.48;100.00
51287;BME280;37364;46.974;18.916;2023-01-27T12:34:02;150224.69;;;-0.52;100.00
51287;BME280;37364;46.974;18.916;2023-01-27T12:36:38;150220.81;;;-0.53;100.00
51287;BME280;37364;46.974;18.916;2023-01-27T12:39:25;150191.31;;;-0.65;100.00
51287;BME280;37364;46.974;18.916;2023-01-27T12:42:00;150215.69;;;-0.55;100.00
51287;BME280;37364;46.974;18.916;2023-01-27T12:44:39;150238.81;;;-0.46;100.00
51287;BME280;37364;46.974;18.916;2023-01-27T12:47:22;150224.69;;;-0.52;100.00
51287;BME280;37364;46.974;18.916;2023-01-27T12:50:19;150263.22;;;-0.36;100.00
51287;BME280;37364;46.974;18.916;2023-01-27T12:53:10;150234.94;;;-0.48;100.00
51287;BME280;37364;46.974;18.916;2023-01-27T12:55:42;150240.09;;;-0.46;100.00
51287;BME280;37364;46.974;18.916;2023-01-27T12:58:37;150222.13;;;-0.53;100.00
51287;BME280;37364;46.974;18.916;2023-01-27T13:01:21;150219.56;;;-0.54;100.00
51287;BME280;37364;46.974;18.916;2023-01-27T13:03:56;150233.69;;;-0.48;100.00
51287;BME280;37364;46.974;18.916;2023-01-27T13:06:38;150258.06;;;-0.38;100.00
51287;BME280;37364;46.974;18.916;2023-01-27T13:09:23;150283.75;;;-0.28;100.00
51287;BME280;37364;46.974;18.916;2023-01-27T13:11:57;150292.75;;;-0.25;100.00
51287;BME280;37364;46.974;18.916;2023-01-27T13:14:39;150250.34;;;-0.42;100.00
51287;BME280;37364;46.974;18.916;2023-01-27T13:17:29;150258.06;;;-0.38;100.00
51287;BME280;37364;46.974;18.916;2023-01-27T13:20:03;150252.94;;;-0.41;100.00
51287;BME280;37364;46.974;18.916;2023-01-27T13:22:40;150265.75;;;-0.35;100.00
51287;BME280;37364;46.974;18.916;2023-01-27T13:25:17;150270.88;;;-0.33;100.00
51287;BME280;37364;46.974;18.916;2023-01-27T13:27:49;150233.69;;;-0.48;100.00
51287;BME280;37364;46.974;18.916;2023-01-27T13:30:29;150241.34;;;-0.45;100.00
51287;BME280;37364;46.974;18.916;2023-01-27T13:33:19;150277.34;;;-0.31;100.00